sensor_id;sensor_type;location;lat;lon;timestamp;P1;P2;P0
76383;PMS7003;65204;48.606;7.598;2023-11-19T00:00:26;3.75;3.75;3.50
76383;PMS7003;65204;48.606;7.598;2023-11-19T00:00:57;5.00;5.00;4.00
76383;PMS7003;65204;48.606;7.598;2023-11-19T00:01:27;6.00;4.00;4.00
76383;PMS7003;65204;48.606;7.598;2023-11-19T00:01:58;4.00;4.00;3.00
76383;PMS7003;65204;48.606;7.598;2023-11-19T00:02:28;2.75;2.75;2.00
76383;PMS7003;65204;48.606;7.598;2023-11-19T00:02:59;3.75;3.75;3.25
76383;PMS7003;65204;48.606;7.598;2023-11-19T00:03:29;4.00;4.00;3.50
76383;PMS7003;65204;48.606;7.598;2023-11-19T00:03:59;4.25;4.25;4.00
76383;PMS7003;65204;48.606;7.598;2023-11-19T00:04:30;3.00;3.00;2.00
76383;PMS7003;65204;48.606;7.598;2023-11-19T00:05:00;4.00;4.00;3.25
76383;PMS7003;65204;48.606;7.598;2023-11-19T00:05:30;4.00;4.00;3.25
76383;PMS7003;65204;48.606;7.598;2023-11-19T00:06:01;4.50;4.50;4.00
76383;PMS7003;65204;48.606;7.598;2023-11-19T00:06:31;5.00;3.00;3.00
76383;PMS7003;65204;48.606;7.598;2023-11-19T00:07:02;5.00;3.50;2.75
76383;PMS7003;65204;48.606;7.598;2023-11-19T00:07:35;3.00;3.00;2.40
76383;PMS7003;65204;48.606;7.598;2023-11-19T00:08:06;2.40;2.40;2.00
76383;PMS7003;65204;48.606;7.598;2023-11-19T00:08:36;4.75;3.50;3.25
76383;PMS7003;65204;48.606;7.598;2023-11-19T00:09:07;5.00;5.00;4.00
76383;PMS7003;65204;48.606;7.598;2023-11-19T00:09:38;4.00;4.00;3.00
76383;PMS7003;65204;48.606;7.598;2023-11-19T00:10:13;3.00;3.00;2.60
76383;PMS7003;65204;48.606;7.598;2023-11-19T00:10:48;6.00;4.00;4.00
76383;PMS7003;65204;48.606;7.598;2023-11-19T00:11:18;3.50;3.50;3.00
76383;PMS7003;65204;48.606;7.598;2023-11-19T00:11:49;3.00;3.00;3.00
76383;PMS7003;65204;48.606;7.598;2023-11-19T00:12:19;5.50;4.25;4.00
76383;PMS7003;65204;48.606;7.598;2023-11-19T00:12:49;2.75;2.75;2.00
76383;PMS7003;65204;48.606;7.598;2023-11-19T00:13:20;3.25;3.25;2.25
76383;PMS7003;65204;48.606;7.598;2023-11-19T00:13:50;5.00;4.50;4.00
76383;PMS7003;65204;48.606;7.598;2023-11-19T00:14:21;5.50;3.75;3.00
76383;PMS7003;65204;48.606;7.598;2023-11-19T00:14:51;3.00;3.00;2.75
76383;PMS7003;65204;48.606;7.598;2023-11-19T00:15:22;3.75;2.25;2.00
76383;PMS7003;65204;48.606;7.598;2023-11-19T00:15:54;6.20;3.20;3.00
76383;PMS7003;65204;48.606;7.598;2023-11-19T00:16:24;4.00;4.00;3.75
76383;PMS7003;65204;48.606;7.598;2023-11-19T00:16:55;2.80;2.80;2.40
76383;PMS7003;65204;48.606;7.598;2023-11-19T00:17:26;4.00;4.00;3.25
76383;PMS7003;65204;48.606;7.598;2023-11-19T00:17:57;3.40;3.40;3.00
76383;PMS7003;65204;48.606;7.598;2023-11-19T00:18:27;3.50;3.50;3.00
76383;PMS7003;65204;48.606;7.598;2023-11-19T00:18:58;3.25;3.25;3.00
76383;PMS7003;65204;48.606;7.598;2023-11-19T00:19:29;3.00;3.00;2.20
76383;PMS7003;65204;48.606;7.598;2023-11-19T00:19:59;3.00;3.00;2.25
76383;PMS7003;65204;48.606;7.598;2023-11-19T00:20:30;5.50;4.00;3.00
76383;PMS7003;65204;48.606;7.598;2023-11-19T00:21:00;3.75;3.75;3.25
76383;PMS7003;65204;48.606;7.598;2023-11-19T00:21:32;3.80;3.80;3.20
76383;PMS7003;65204;48.606;7.598;2023-11-19T00:22:03;4.40;4.40;3.40
76383;PMS7003;65204;48.606;7.598;2023-11-19T00:22:33;5.00;5.00;4.00
76383;PMS7003;65204;48.606;7.598;2023-11-19T00:23:04;5.50;4.25;3.00
76383;PMS7003;65204;48.606;7.598;2023-11-19T00:23:34;3.00;3.00;3.00
76383;PMS7003;65204;48.606;7.598;2023-11-19T00:24:04;5.00;5.00;4.00
76383;PMS7003;65204;48.606;7.598;2023-11-19T00:24:35;4.00;3.00;3.00
76383;PMS7003;65204;48.606;7.598;2023-11-19T00:25:06;4.00;4.00;4.00
76383;PMS7003;65204;48.606;7.598;2023-11-19T00:25:36;4.25;4.25;3.50
76383;PMS7003;65204;48.606;7.598;2023-11-19T00:26:08;3.40;3.40;3.00
76383;PMS7003;65204;48.606;7.598;2023-11-19T00:26:39;3.50;2.00;1.00
76383;PMS7003;65204;48.606;7.598;2023-11-19T00:27:09;3.00;3.00;3.00
76383;PMS7003;65204;48.606;7.598;2023-11-19T00:27:40;4.25;4.25;3.75
76383;PMS7003;65204;48.606;7.598;2023-11-19T00:28:10;4.00;2.00;2.00
76383;PMS7003;65204;48.606;7.598;2023-11-19T00:28:40;3.50;3.50;3.00
76383;PMS7003;65204;48.606;7.598;2023-11-19T00:29:11;3.50;2.50;2.00
76383;PMS7003;65204;48.606;7.598;2023-11-19T00:29:43;3.40;3.40;2.60
76383;PMS7003;65204;48.606;7.598;2023-11-19T00:30:15;2.80;2.80;2.00
76383;PMS7003;65204;48.606;7.598;2023-11-19T00:30:45;4.00;4.00;3.00
76383;PMS7003;65204;48.606;7.598;2023-11-19T00:31:16;4.00;2.00;1.00
76383;PMS7003;65204;48.606;7.598;2023-11-19T00:31:46;1.50;1.50;1.50
76383;PMS7003;65204;48.606;7.598;2023-11-19T00:32:16;3.00;3.00;2.00
76383;PMS7003;65204;48.606;7.598;2023-11-19T00:32:47;2.50;2.50;2.25
76383;PMS7003;65204;48.606;7.598;2023-11-19T00:33:17;3.00;3.00;2.00
76383;PMS7003;65204;48.606;7.598;2023-11-19T00:33:47;3.75;3.50;2.50
76383;PMS7003;65204;48.606;7.598;2023-11-19T00:34:18;4.50;3.50;2.25
76383;PMS7003;65204;48.606;7.598;2023-11-19T00:34:51;2.00;1.00;1.00
76383;PMS7003;65204;48.606;7.598;2023-11-19T00:35:21;2.00;2.00;2.00
76383;PMS7003;65204;48.606;7.598;2023-11-19T00:35:52;2.75;2.75;2.00
76383;PMS7003;65204;48.606;7.598;2023-11-19T00:36:22;2.00;2.00;2.00
76383;PMS7003;65204;48.606;7.598;2023-11-19T00:36:53;3.20;2.20;2.00
76383;PMS7003;65204;48.606;7.598;2023-11-19T00:37:25;2.60;2.60;2.00
76383;PMS7003;65204;48.606;7.598;2023-11-19T00:37:56;4.00;4.00;3.00
76383;PMS7003;65204;48.606;7.598;2023-11-19T00:38:28;3.00;3.00;3.00
76383;PMS7003;65204;48.606;7.598;2023-11-19T00:38:58;3.00;3.00;2.25
76383;PMS7003;65204;48.606;7.598;2023-11-19T00:39:29;4.75;3.00;3.00
76383;PMS7003;65204;48.606;7.598;2023-11-19T00:39:59;4.00;3.00;3.00
76383;PMS7003;65204;48.606;7.598;2023-11-19T00:40:29;2.25;2.25;2.00
76383;PMS7003;65204;48.606;7.598;2023-11-19T00:41:00;4.00;3.50;3.00
76383;PMS7003;65204;48.606;7.598;2023-11-19T00:41:32;3.20;3.20;2.20
76383;PMS7003;65204;48.606;7.598;2023-11-19T00:42:02;3.75;3.75;3.00
76383;PMS7003;65204;48.606;7.598;2023-11-19T00:42:33;2.00;2.00;2.00
76383;PMS7003;65204;48.606;7.598;2023-11-19T00:43:04;7.00;4.00;2.75
76383;PMS7003;65204;48.606;7.598;2023-11-19T00:43:34;2.25;1.00;1.00
76383;PMS7003;65204;48.606;7.598;2023-11-19T00:44:04;6.00;3.25;2.75
76383;PMS7003;65204;48.606;7.598;2023-11-19T00:44:35;2.25;2.25;2.25
76383;PMS7003;65204;48.606;7.598;2023-11-19T00:45:05;3.00;3.00;2.50
76383;PMS7003;65204;48.606;7.598;2023-11-19T00:45:39;3.00;3.00;3.00
76383;PMS7003;65204;48.606;7.598;2023-11-19T00:46:10;2.50;2.50;2.25
76383;PMS7003;65204;48.606;7.598;2023-11-19T00:46:46;3.00;3.00;1.80
76383;PMS7003;65204;48.606;7.598;2023-11-19T00:47:17;3.00;2.00;1.25
76383;PMS7003;65204;48.606;7.598;2023-11-19T00:47:50;3.00;3.00;2.20
76383;PMS7003;65204;48.606;7.598;2023-11-19T00:48:20;2.25;2.25;2.00
76383;PMS7003;65204;48.606;7.598;2023-11-19T00:48:51;2.25;1.75;1.75
76383;PMS7003;65204;48.606;7.598;2023-11-19T00:49:21;4.25;2.00;2.00
76383;PMS7003;65204;48.606;7.598;2023-11-19T00:49:51;2.00;2.00;1.25
76383;PMS7003;65204;48.606;7.598;2023-11-19T00:50:22;3.75;2.00;2.00
76383;PMS7003;65204;48.606;7.598;2023-11-19T00:50:52;3.00;2.75;2.25
76383;PMS7003;65204;48.606;7.598;2023-11-19T00:51:23;3.75;3.00;2.25
76383;PMS7003;65204;48.606;7.598;2023-11-19T00:51:53;3.00;3.00;2.00
76383;PMS7003;65204;48.606;7.598;2023-11-19T00:52:24;2.50;2.50;2.50
76383;PMS7003;65204;48.606;7.598;2023-11-19T00:52:54;3.00;3.00;2.75
76383;PMS7003;65204;48.606;7.598;2023-11-19T00:53:24;4.25;4.00;3.00
76383;PMS7003;65204;48.606;7.598;2023-11-19T00:53:55;3.00;3.00;3.00
76383;PMS7003;65204;48.606;7.598;2023-11-19T00:54:25;2.00;2.00;2.00
76383;PMS7003;65204;48.606;7.598;2023-11-19T00:54:56;2.25;2.00;1.50
76383;PMS7003;65204;48.606;7.598;2023-11-19T00:55:26;2.00;2.00;1.75
76383;PMS7003;65204;48.606;7.598;2023-11-19T00:55:57;2.00;2.00;2.00
76383;PMS7003;65204;48.606;7.598;2023-11-19T00:56:28;2.50;2.50;2.00
76383;PMS7003;65204;48.606;7.598;2023-11-19T00:56:58;4.50;3.25;2.75
76383;PMS7003;65204;48.606;7.598;2023-11-19T00:57:28;2.50;2.50;2.50
76383;PMS7003;65204;48.606;7.598;2023-11-19T00:57:59;3.00;3.00;2.25
76383;PMS7003;65204;48.606;7.598;2023-11-19T00:58:29;0.00;0.00;0.00
76383;PMS7003;65204;48.606;7.598;2023-11-19T00:58:59;2.25;1.25;1.00
76383;PMS7003;65204;48.606;7.598;2023-11-19T00:59:30;3.00;3.00;2.25
76383;PMS7003;65204;48.606;7.598;2023-11-19T01:00:00;2.25;2.25;2.00
76383;PMS7003;65204;48.606;7.598;2023-11-19T01:00:31;2.50;2.50;2.50
76383;PMS7003;65204;48.606;7.598;2023-11-19T01:01:02;2.00;2.00;1.40
76383;PMS7003;65204;48.606;7.598;2023-11-19T01:01:33;2.00;2.00;2.00
76383;PMS7003;65204;48.606;7.598;2023-11-19T01:02:03;2.00;2.00;2.00
76383;PMS7003;65204;48.606;7.598;2023-11-19T01:02:36;2.00;2.00;1.80
76383;PMS7003;65204;48.606;7.598;2023-11-19T01:03:06;2.25;2.25;2.25
76383;PMS7003;65204;48.606;7.598;2023-11-19T01:03:37;3.75;2.25;2.00
76383;PMS7003;65204;48.606;7.598;2023-11-19T01:04:07;1.25;1.25;1.00
76383;PMS7003;65204;48.606;7.598;2023-11-19T01:04:38;2.75;2.75;2.25
76383;PMS7003;65204;48.606;7.598;2023-11-19T01:05:09;1.00;1.00;1.00
76383;PMS7003;65204;48.606;7.598;2023-11-19T01:05:39;4.00;2.25;2.00
76383;PMS7003;65204;48.606;7.598;2023-11-19T01:06:10;2.00;2.00;1.00
76383;PMS7003;65204;48.606;7.598;2023-11-19T01:06:40;3.00;1.75;1.25
76383;PMS7003;65204;48.606;7.598;2023-11-19T01:07:12;2.60;2.60;2.00
76383;PMS7003;65204;48.606;7.598;2023-11-19T01:07:42;3.50;3.00;2.25
76383;PMS7003;65204;48.606;7.598;2023-11-19T01:08:13;3.00;3.00;3.00
76383;PMS7003;65204;48.606;7.598;2023-11-19T01:08:43;2.25;1.50;1.50
76383;PMS7003;65204;48.606;7.598;2023-11-19T01:09:14;3.00;2.75;2.00
76383;PMS7003;65204;48.606;7.598;2023-11-19T01:09:45;2.00;2.00;1.75
76383;PMS7003;65204;48.606;7.598;2023-11-19T01:10:15;2.50;2.00;1.75
76383;PMS7003;65204;48.606;7.598;2023-11-19T01:10:46;2.00;2.00;1.75
76383;PMS7003;65204;48.606;7.598;2023-11-19T01:11:19;4.00;3.00;2.00
76383;PMS7003;65204;48.606;7.598;2023-11-19T01:11:53;3.00;3.00;2.00
76383;PMS7003;65204;48.606;7.598;2023-11-19T01:12:24;2.75;2.75;2.00
76383;PMS7003;65204;48.606;7.598;2023-11-19T01:12:54;1.00;1.00;1.00
76383;PMS7003;65204;48.606;7.598;2023-11-19T01:13:25;1.50;1.00;1.00
76383;PMS7003;65204;48.606;7.598;2023-11-19T01:13:55;3.00;3.00;2.25
76383;PMS7003;65204;48.606;7.598;2023-11-19T01:14:25;2.00;2.00;1.25
76383;PMS7003;65204;48.606;7.598;2023-11-19T01:14:56;2.25;2.25;2.00
76383;PMS7003;65204;48.606;7.598;2023-11-19T01:15:27;2.00;2.00;1.60
76383;PMS7003;65204;48.606;7.598;2023-11-19T01:15:58;3.50;3.50;3.00
76383;PMS7003;65204;48.606;7.598;2023-11-19T01:16:28;3.00;3.00;2.00
76383;PMS7003;65204;48.606;7.598;2023-11-19T01:16:59;2.00;2.00;1.25
76383;PMS7003;65204;48.606;7.598;2023-11-19T01:17:30;0.00;0.00;0.00
76383;PMS7003;65204;48.606;7.598;2023-11-19T01:18:01;2.80;2.00;2.00
76383;PMS7003;65204;48.606;7.598;2023-11-19T01:18:34;3.20;2.00;2.00
76383;PMS7003;65204;48.606;7.598;2023-11-19T01:19:05;3.00;3.00;2.00
76383;PMS7003;65204;48.606;7.598;2023-11-19T01:19:36;2.00;2.00;2.00
76383;PMS7003;65204;48.606;7.598;2023-11-19T01:20:06;3.00;2.00;2.00
76383;PMS7003;65204;48.606;7.598;2023-11-19T01:20:37;1.00;1.00;1.00
76383;PMS7003;65204;48.606;7.598;2023-11-19T01:21:07;2.00;2.00;1.25
76383;PMS7003;65204;48.606;7.598;2023-11-19T01:21:38;2.00;2.00;1.00
76383;PMS7003;65204;48.606;7.598;2023-11-19T01:22:08;2.00;2.00;1.75
76383;PMS7003;65204;48.606;7.598;2023-11-19T01:22:39;1.00;1.00;1.00
76383;PMS7003;65204;48.606;7.598;2023-11-19T01:23:10;1.00;1.00;1.00
76383;PMS7003;65204;48.606;7.598;2023-11-19T01:23:41;1.00;1.00;1.00
76383;PMS7003;65204;48.606;7.598;2023-11-19T01:24:14;1.00;1.00;1.00
76383;PMS7003;65204;48.606;7.598;2023-11-19T01:24:45;2.00;2.00;1.80
76383;PMS7003;65204;48.606;7.598;2023-11-19T01:25:16;2.00;2.00;2.00
76383;PMS7003;65204;48.606;7.598;2023-11-19T01:25:46;1.00;1.00;0.50
76383;PMS7003;65204;48.606;7.598;2023-11-19T01:26:18;1.00;1.00;1.00
76383;PMS7003;65204;48.606;7.598;2023-11-19T01:26:48;2.00;2.00;1.75
76383;PMS7003;65204;48.606;7.598;2023-11-19T01:27:19;1.00;1.00;1.00
76383;PMS7003;65204;48.606;7.598;2023-11-19T01:27:49;2.50;1.00;1.00
76383;PMS7003;65204;48.606;7.598;2023-11-19T01:28:20;0.00;0.00;0.00
76383;PMS7003;65204;48.606;7.598;2023-11-19T01:28:50;1.00;1.00;1.00
76383;PMS7003;65204;48.606;7.598;2023-11-19T01:29:22;1.40;1.40;1.00
76383;PMS7003;65204;48.606;7.598;2023-11-19T01:29:53;1.00;1.00;1.00
76383;PMS7003;65204;48.606;7.598;2023-11-19T01:30:23;2.00;2.00;2.00
76383;PMS7003;65204;48.606;7.598;2023-11-19T01:30:54;1.00;1.00;1.00
76383;PMS7003;65204;48.606;7.598;2023-11-19T01:31:24;1.25;1.25;1.25
76383;PMS7003;65204;48.606;7.598;2023-11-19T01:31:55;1.00;1.00;1.00
76383;PMS7003;65204;48.606;7.598;2023-11-19T01:32:25;1.75;1.75;1.50
76383;PMS7003;65204;48.606;7.598;2023-11-19T01:32:55;2.25;2.25;2.25
76383;PMS7003;65204;48.606;7.598;2023-11-19T01:33:26;2.25;1.00;1.00
76383;PMS7003;65204;48.606;7.598;2023-11-19T01:33:57;2.00;2.00;2.00
76383;PMS7003;65204;48.606;7.598;2023-11-19T01:34:27;1.50;1.50;1.25
76383;PMS7003;65204;48.606;7.598;2023-11-19T01:34:58;2.00;2.00;1.20
76383;PMS7003;65204;48.606;7.598;2023-11-19T01:35:28;2.00;2.00;1.25
76383;PMS7003;65204;48.606;7.598;2023-11-19T01:35:59;4.00;2.25;2.00
76383;PMS7003;65204;48.606;7.598;2023-11-19T01:36:29;1.00;1.00;1.00
76383;PMS7003;65204;48.606;7.598;2023-11-19T01:36:59;1.00;1.00;1.00
76383;PMS7003;65204;48.606;7.598;2023-11-19T01:37:30;1.00;1.00;1.00
76383;PMS7003;65204;48.606;7.598;2023-11-19T01:38:02;1.40;1.40;1.00
76383;PMS7003;65204;48.606;7.598;2023-11-19T01:38:32;2.00;2.00;1.25
76383;PMS7003;65204;48.606;7.598;2023-11-19T01:39:02;1.75;1.75;1.50
76383;PMS7003;65204;48.606;7.598;2023-11-19T01:39:34;1.40;1.40;1.00
76383;PMS7003;65204;48.606;7.598;2023-11-19T01:40:05;1.00;1.00;1.00
76383;PMS7003;65204;48.606;7.598;2023-11-19T01:40:37;3.40;2.00;2.00
76383;PMS7003;65204;48.606;7.598;2023-11-19T01:41:08;2.00;2.00;2.00
76383;PMS7003;65204;48.606;7.598;2023-11-19T01:41:38;3.00;3.00;2.00
76383;PMS7003;65204;48.606;7.598;2023-11-19T01:42:09;2.25;2.25;2.00
76383;PMS7003;65204;48.606;7.598;2023-11-19T01:42:39;2.00;2.00;2.00
76383;PMS7003;65204;48.606;7.598;2023-11-19T01:43:10;2.00;2.00;2.00
76383;PMS7003;65204;48.606;7.598;2023-11-19T01:43:41;1.00;1.00;1.00
76383;PMS7003;65204;48.606;7.598;2023-11-19T01:44:11;1.00;1.00;1.00
76383;PMS7003;65204;48.606;7.598;2023-11-19T01:44:42;5.00;2.75;2.25
76383;PMS7003;65204;48.606;7.598;2023-11-19T01:45:27;2.60;2.40;2.00
76383;PMS7003;65204;48.606;7.598;2023-11-19T01:46:03;1.40;1.40;1.40
76383;PMS7003;65204;48.606;7.598;2023-11-19T01:46:35;2.00;2.00;1.20
76383;PMS7003;65204;48.606;7.598;2023-11-19T01:47:06;1.20;1.20;1.00
76383;PMS7003;65204;48.606;7.598;2023-11-19T01:47:38;2.80;2.00;1.60
76383;PMS7003;65204;48.606;7.598;2023-11-19T01:48:08;1.25;1.25;1.00
76383;PMS7003;65204;48.606;7.598;2023-11-19T01:48:44;2.80;2.00;2.00
76383;PMS7003;65204;48.606;7.598;2023-11-19T01:49:15;2.00;2.00;1.20
76383;PMS7003;65204;48.606;7.598;2023-11-19T01:49:48;1.80;1.80;1.20
76383;PMS7003;65204;48.606;7.598;2023-11-19T01:50:19;1.00;1.00;1.00
76383;PMS7003;65204;48.606;7.598;2023-11-19T01:50:50;1.00;1.00;1.00
76383;PMS7003;65204;48.606;7.598;2023-11-19T01:51:22;2.00;2.00;2.00
76383;PMS7003;65204;48.606;7.598;2023-11-19T01:51:52;1.25;1.25;1.00
76383;PMS7003;65204;48.606;7.598;2023-11-19T01:52:23;1.50;1.50;1.50
76383;PMS7003;65204;48.606;7.598;2023-11-19T01:52:53;1.25;1.25;0.50
76383;PMS7003;65204;48.606;7.598;2023-11-19T01:53:27;1.20;1.20;1.20
76383;PMS7003;65204;48.606;7.598;2023-11-19T01:53:59;1.00;1.00;1.00
76383;PMS7003;65204;48.606;7.598;2023-11-19T01:54:29;3.00;3.00;2.00
76383;PMS7003;65204;48.606;7.598;2023-11-19T01:55:00;1.00;1.00;1.00
76383;PMS7003;65204;48.606;7.598;2023-11-19T01:55:31;1.40;1.40;1.00
76383;PMS7003;65204;48.606;7.598;2023-11-19T01:56:01;1.25;1.25;1.00
76383;PMS7003;65204;48.606;7.598;2023-11-19T01:56:33;1.00;1.00;1.00
76383;PMS7003;65204;48.606;7.598;2023-11-19T01:57:04;1.75;1.75;1.00
76383;PMS7003;65204;48.606;7.598;2023-11-19T01:57:34;1.00;1.00;1.00
76383;PMS7003;65204;48.606;7.598;2023-11-19T01:58:07;1.40;1.40;1.00
76383;PMS7003;65204;48.606;7.598;2023-11-19T01:58:37;2.00;2.00;1.25
76383;PMS7003;65204;48.606;7.598;2023-11-19T01:59:10;2.00;2.00;1.60
76383;PMS7003;65204;48.606;7.598;2023-11-19T01:59:43;2.80;1.80;1.40
76383;PMS7003;65204;48.606;7.598;2023-11-19T02:00:14;1.20;1.20;0.60
76383;PMS7003;65204;48.606;7.598;2023-11-19T02:00:46;1.00;1.00;1.00
76383;PMS7003;65204;48.606;7.598;2023-11-19T02:01:16;1.75;1.75;1.50
76383;PMS7003;65204;48.606;7.598;2023-11-19T02:01:47;1.25;1.25;1.25
76383;PMS7003;65204;48.606;7.598;2023-11-19T02:02:17;1.00;1.00;0.75
76383;PMS7003;65204;48.606;7.598;2023-11-19T02:02:51;1.20;1.20;1.00
76383;PMS7003;65204;48.606;7.598;2023-11-19T02:03:22;3.25;1.50;1.00
76383;PMS7003;65204;48.606;7.598;2023-11-19T02:03:55;3.00;1.00;1.00
76383;PMS7003;65204;48.606;7.598;2023-11-19T02:04:28;3.00;1.40;1.00
76383;PMS7003;65204;48.606;7.598;2023-11-19T02:04:58;1.50;1.50;1.00
76383;PMS7003;65204;48.606;7.598;2023-11-19T02:05:30;1.60;1.60;1.40
76383;PMS7003;65204;48.606;7.598;2023-11-19T02:06:02;2.00;1.60;1.00
76383;PMS7003;65204;48.606;7.598;2023-11-19T02:06:34;2.00;2.00;1.80
76383;PMS7003;65204;48.606;7.598;2023-11-19T02:07:05;1.20;1.20;1.00
76383;PMS7003;65204;48.606;7.598;2023-11-19T02:07:36;1.75;1.75;1.25
76383;PMS7003;65204;48.606;7.598;2023-11-19T02:08:06;2.00;2.00;1.25
76383;PMS7003;65204;48.606;7.598;2023-11-19T02:08:38;1.40;1.40;1.00
76383;PMS7003;65204;48.606;7.598;2023-11-19T02:09:08;1.00;1.00;1.00
76383;PMS7003;65204;48.606;7.598;2023-11-19T02:09:42;1.25;1.25;1.00
76383;PMS7003;65204;48.606;7.598;2023-11-19T02:10:13;1.00;1.00;1.00
76383;PMS7003;65204;48.606;7.598;2023-11-19T02:10:44;0.00;0.00;0.00
76383;PMS7003;65204;48.606;7.598;2023-11-19T02:11:15;1.00;1.00;1.00
76383;PMS7003;65204;48.606;7.598;2023-11-19T02:11:45;1.25;1.25;1.00
76383;PMS7003;65204;48.606;7.598;2023-11-19T02:12:21;0.00;0.00;0.00
76383;PMS7003;65204;48.606;7.598;2023-11-19T02:12:51;1.00;1.00;1.00
76383;PMS7003;65204;48.606;7.598;2023-11-19T02:13:22;0.75;0.75;0.25
76383;PMS7003;65204;48.606;7.598;2023-11-19T02:13:52;0.75;0.75;0.00
76383;PMS7003;65204;48.606;7.598;2023-11-19T02:14:24;2.00;2.00;1.25
76383;PMS7003;65204;48.606;7.598;2023-11-19T02:14:56;1.40;1.40;1.00
76383;PMS7003;65204;48.606;7.598;2023-11-19T02:15:29;2.40;1.00;1.00
76383;PMS7003;65204;48.606;7.598;2023-11-19T02:15:59;1.00;1.00;1.00
76383;PMS7003;65204;48.606;7.598;2023-11-19T02:16:32;1.00;1.00;0.80
76383;PMS7003;65204;48.606;7.598;2023-11-19T02:17:02;1.00;1.00;1.00
76383;PMS7003;65204;48.606;7.598;2023-11-19T02:17:32;1.25;1.25;1.25
76383;PMS7003;65204;48.606;7.598;2023-11-19T02:19:07;2.00;2.00;2.00
76383;PMS7003;65204;48.606;7.598;2023-11-19T02:19:38;1.00;1.00;1.00
76383;PMS7003;65204;48.606;7.598;2023-11-19T02:20:08;1.50;1.50;1.00
76383;PMS7003;65204;48.606;7.598;2023-11-19T02:20:41;1.40;1.40;1.00
76383;PMS7003;65204;48.606;7.598;2023-11-19T02:21:11;2.00;2.00;1.25
76383;PMS7003;65204;48.606;7.598;2023-11-19T02:21:44;1.20;1.20;1.00
76383;PMS7003;65204;48.606;7.598;2023-11-19T02:22:15;1.00;1.00;1.00
76383;PMS7003;65204;48.606;7.598;2023-11-19T02:22:46;2.00;2.00;1.50
76383;PMS7003;65204;48.606;7.598;2023-11-19T02:23:18;1.00;1.00;1.00
76383;PMS7003;65204;48.606;7.598;2023-11-19T02:23:50;1.00;1.00;0.80
76383;PMS7003;65204;48.606;7.598;2023-11-19T02:24:21;1.25;1.25;1.00
76383;PMS7003;65204;48.606;7.598;2023-11-19T02:24:54;1.40;1.00;1.00
76383;PMS7003;65204;48.606;7.598;2023-11-19T02:25:31;1.00;1.00;1.00
76383;PMS7003;65204;48.606;7.598;2023-11-19T02:26:14;1.80;1.00;1.00
76383;PMS7003;65204;48.606;7.598;2023-11-19T02:27:02;0.60;0.60;0.00
76383;PMS7003;65204;48.606;7.598;2023-11-19T02:28:25;1.60;0.20;0.20
76383;PMS7003;65204;48.606;7.598;2023-11-19T02:28:56;0.00;0.00;0.00
76383;PMS7003;65204;48.606;7.598;2023-11-19T02:29:26;1.00;1.00;1.00
76383;PMS7003;65204;48.606;7.598;2023-11-19T02:29:57;0.00;0.00;0.00
76383;PMS7003;65204;48.606;7.598;2023-11-19T02:30:27;1.00;1.00;1.00
76383;PMS7003;65204;48.606;7.598;2023-11-19T02:30:58;2.00;0.80;0.80
76383;PMS7003;65204;48.606;7.598;2023-11-19T02:31:29;1.00;1.00;0.75
76383;PMS7003;65204;48.606;7.598;2023-11-19T02:32:00;1.00;1.00;1.00
76383;PMS7003;65204;48.606;7.598;2023-11-19T02:32:33;0.00;0.00;0.00
76383;PMS7003;65204;48.606;7.598;2023-11-19T02:33:03;1.00;1.00;1.00
76383;PMS7003;65204;48.606;7.598;2023-11-19T02:33:36;1.00;1.00;1.00
76383;PMS7003;65204;48.606;7.598;2023-11-19T02:34:06;1.00;1.00;0.60
76383;PMS7003;65204;48.606;7.598;2023-11-19T02:34:37;0.00;0.00;0.00
76383;PMS7003;65204;48.606;7.598;2023-11-19T02:35:07;1.50;1.00;1.00
76383;PMS7003;65204;48.606;7.598;2023-11-19T02:35:38;0.00;0.00;0.00
76383;PMS7003;65204;48.606;7.598;2023-11-19T02:36:08;2.00;1.00;0.75
76383;PMS7003;65204;48.606;7.598;2023-11-19T02:36:39;1.00;1.00;1.00
76383;PMS7003;65204;48.606;7.598;2023-11-19T02:37:11;1.00;1.00;1.00
76383;PMS7003;65204;48.606;7.598;2023-11-19T02:37:42;0.25;0.25;0.00
76383;PMS7003;65204;48.606;7.598;2023-11-19T02:38:12;0.75;0.75;0.75
76383;PMS7003;65204;48.606;7.598;2023-11-19T02:38:44;0.20;0.20;0.00
76383;PMS7003;65204;48.606;7.598;2023-11-19T02:39:15;0.25;0.25;0.00
76383;PMS7003;65204;48.606;7.598;2023-11-19T02:39:51;0.60;0.60;0.00
76383;PMS7003;65204;48.606;7.598;2023-11-19T02:40:21;0.00;0.00;0.00
76383;PMS7003;65204;48.606;7.598;2023-11-19T02:40:54;0.00;0.00;0.00
76383;PMS7003;65204;48.606;7.598;2023-11-19T02:41:24;0.00;0.00;0.00
76383;PMS7003;65204;48.606;7.598;2023-11-19T02:41:54;0.25;0.25;0.00
76383;PMS7003;65204;48.606;7.598;2023-11-19T02:42:25;0.25;0.25;0.25
76383;PMS7003;65204;48.606;7.598;2023-11-19T02:42:55;0.00;0.00;0.00
76383;PMS7003;65204;48.606;7.598;2023-11-19T02:43:26;0.00;0.00;0.00
76383;PMS7003;65204;48.606;7.598;2023-11-19T02:43:56;1.50;1.50;1.00
76383;PMS7003;65204;48.606;7.598;2023-11-19T02:44:26;0.00;0.00;0.00
76383;PMS7003;65204;48.606;7.598;2023-11-19T02:44:59;0.80;0.80;0.00
76383;PMS7003;65204;48.606;7.598;2023-11-19T02:45:30;0.25;0.25;0.00
76383;PMS7003;65204;48.606;7.598;2023-11-19T02:46:01;0.75;0.75;0.25
76383;PMS7003;65204;48.606;7.598;2023-11-19T02:46:37;1.00;1.00;0.20
76383;PMS7003;65204;48.606;7.598;2023-11-19T02:47:08;0.00;0.00;0.00
76383;PMS7003;65204;48.606;7.598;2023-11-19T02:47:38;0.00;0.00;0.00
76383;PMS7003;65204;48.606;7.598;2023-11-19T02:48:08;0.00;0.00;0.00
76383;PMS7003;65204;48.606;7.598;2023-11-19T02:48:39;0.00;0.00;0.00
76383;PMS7003;65204;48.606;7.598;2023-11-19T02:49:10;0.25;0.25;0.00
76383;PMS7003;65204;48.606;7.598;2023-11-19T02:49:40;0.00;0.00;0.00
76383;PMS7003;65204;48.606;7.598;2023-11-19T02:50:11;0.00;0.00;0.00
76383;PMS7003;65204;48.606;7.598;2023-11-19T02:50:44;0.00;0.00;0.00
76383;PMS7003;65204;48.606;7.598;2023-11-19T02:51:16;0.00;0.00;0.00
76383;PMS7003;65204;48.606;7.598;2023-11-19T02:51:46;0.00;0.00;0.00
76383;PMS7003;65204;48.606;7.598;2023-11-19T02:52:16;0.00;0.00;0.00
76383;PMS7003;65204;48.606;7.598;2023-11-19T02:52:47;0.00;0.00;0.00
76383;PMS7003;65204;48.606;7.598;2023-11-19T02:53:18;0.20;0.20;0.00
76383;PMS7003;65204;48.606;7.598;2023-11-19T02:53:51;0.00;0.00;0.00
76383;PMS7003;65204;48.606;7.598;2023-11-19T02:54:22;0.00;0.00;0.00
76383;PMS7003;65204;48.606;7.598;2023-11-19T02:54:57;0.00;0.00;0.00
76383;PMS7003;65204;48.606;7.598;2023-11-19T02:55:27;0.00;0.00;0.00
76383;PMS7003;65204;48.606;7.598;2023-11-19T02:56:00;0.00;0.00;0.00
76383;PMS7003;65204;48.606;7.598;2023-11-19T02:56:36;0.00;0.00;0.00
76383;PMS7003;65204;48.606;7.598;2023-11-19T02:57:08;0.00;0.00;0.00
76383;PMS7003;65204;48.606;7.598;2023-11-19T02:57:40;0.00;0.00;0.00
76383;PMS7003;65204;48.606;7.598;2023-11-19T02:58:18;0.00;0.00;0.00
76383;PMS7003;65204;48.606;7.598;2023-11-19T02:58:53;0.00;0.00;0.00
76383;PMS7003;65204;48.606;7.598;2023-11-19T02:59:24;0.00;0.00;0.00
76383;PMS7003;65204;48.606;7.598;2023-11-19T02:59:57;0.00;0.00;0.00
76383;PMS7003;65204;48.606;7.598;2023-11-19T03:00:28;0.00;0.00;0.00
76383;PMS7003;65204;48.606;7.598;2023-11-19T03:01:12;0.00;0.00;0.00
76383;PMS7003;65204;48.606;7.598;2023-11-19T03:01:49;0.60;0.00;0.00
76383;PMS7003;65204;48.606;7.598;2023-11-19T03:02:20;0.00;0.00;0.00
76383;PMS7003;65204;48.606;7.598;2023-11-19T03:02:51;0.00;0.00;0.00
76383;PMS7003;65204;48.606;7.598;2023-11-19T03:03:39;0.00;0.00;0.00
76383;PMS7003;65204;48.606;7.598;2023-11-19T03:04:10;0.00;0.00;0.00
76383;PMS7003;65204;48.606;7.598;2023-11-19T03:04:42;0.00;0.00;0.00
76383;PMS7003;65204;48.606;7.598;2023-11-19T03:05:15;0.00;0.00;0.00
76383;PMS7003;65204;48.606;7.598;2023-11-19T03:05:46;0.00;0.00;0.00